WEATHER DATA

YESTERDAY
Time Temp. Dewp. Hum. Wind dir Wind speed Wind gust Bar. 1h Prec. 24h Prec.
00:06 21.6 9.5 46 270 0.3 0.8 1016.8 0.0000 0.0000
00:16 21.4 9.3 46 303 0.3 0.6 1016.8 0.0000 0.0000
00:26 21.2 9.1 46 270 0.3 0.6 1016.5 0.0000 0.0000
00:37 21.1 9 46 270 0.3 0.8 1016.5 0.0000 0.0000
00:46 21.1 9 46 270 0.3 0.6 1016.6 0.0000 0.0000
00:56 21 9 46 270 0.3 0.6 1016.6 0.0000 0.0000
01:07 21 9.3 47 225 0.3 0.6 1016.8 0.0000 0.0000
01:17 20.8 9.4 48 270 0.3 0.6 1016.8 0.0000 0.0000
01:27 20.6 9.2 48 270 0.3 0.6 1016.8 0.0000 0.0000
01:37 20.5 9.1 48 90 0.3 0.8 1016.8 0.0000 0.0000
01:48 20.4 9.3 49 270 0.3 0.6 1016.8 0.0000 0.0000
01:57 20.4 9.3 49 270 0.3 0.6 1016.8 0.0000 0.0000
02:07 20.4 9 48 135 0.3 0.6 1016.6 0.0000 0.0000
02:17 20.4 9.3 49 0 0.3 0.6 1016.6 0.0000 0.0000
02:28 20.2 9.5 50 90 0.3 0.6 1016.6 0.0000 0.0000
02:38 20.1 9.4 50 135 0.3 0.6 1016.6 0.0000 0.0000
02:48 20 9.3 50 135 0.3 0.6 1016.6 0.0000 0.0000
02:58 19.8 9.1 50 135 0.3 0.6 1016.5 0.0000 0.0000
03:08 19.8 9.1 50 225 0.3 0.6 1016.5 0.0000 0.0000
03:18 19.7 9 50 90 0.3 0.8 1016.4 0.0000 0.0000
03:28 19.6 8.9 50 270 0.3 0.6 1016.4 0.0000 0.0000
03:39 19.6 8.9 50 0.3 0.6 1016.4 0.0000 0.0000
03:49 19.4 9 51 0.3 0.6 1016.3 0.0000 0.0000
03:59 19.2 8.8 51 0.3 0.6 1016.2 0.0000 0.0000
04:09 19.1 8.7 51 135 0.3 0.6 1016.1 0.0000 0.0000
04:19 19 8.6 51 135 0.3 0.6 1016.1 0.0000 0.0000
04:29 18.8 8.5 51 90 0.3 0.6 1016.1 0.0000 0.0000
04:39 18.5 8.5 52 180 0.3 0.6 1016.1 0.0000 0.0000
04:50 18.4 8.4 52 206 0.3 0.6 1015.9 0.0000 0.0000
05:00 18.2 8.5 53 225 0.3 0.6 1016 0.0000 0.0000
05:10 18.1 8.4 53 135 0.3 0.6 1016 0.0000 0.0000
05:19 18 8 52 270 0.3 0.8 1016 0.0000 0.0000
05:30 18 8 52 270 0.3 0.6 1016 0.0000 0.0000
05:40 18.1 8.4 53 206 0.3 1.1 1016 0.0000 0.0000
05:50 18.3 8.6 53 213 0.3 0.8 1016.1 0.0000 0.0000
06:00 18.4 8.4 52 216 0.3 0.8 1016 0.0000 0.0000
06:11 18.1 8.4 53 217 0.3 0.8 1016 0.0000 0.0000
06:20 18.9 8.8 52 90 0.3 0.6 1016 0.0000 0.0000
06:30 19.4 9 51 90 0.3 0.6 1016 0.0000 0.0000
06:41 19.3 8.6 50 270 0.3 0.8 1016 0.0000 0.0000
06:51 18.7 8.1 50 239 0.3 0.8 1015.9 0.0000 0.0000
07:01 18.2 7.9 51 225 0.3 0.8 1016 0.0000 0.0000
07:11 17.6 7.6 52 225 0.3 0.8 1015.9 0.0000 0.0000
07:22 17.2 7.5 53 225 0.3 0.8 1015.9 0.0000 0.0000
07:31 17 7.6 54 231 0.6 1.1 1015.9 0.0000 0.0000
07:41 16.8 7.5 54 227 0.6 1.1 1016 0.0000 0.0000
07:52 16.6 7.5 55 227 0.6 0.8 1016 0.0000 0.0000
08:02 16.6 7.5 55 225 0.3 0.8 1016.1 0.0000 0.0000
08:12 16.7 7.6 55 180 0.3 0.6 1016.1 0.0000 0.0000
08:22 16.7 7.4 54 161 0.3 0.6 1016.2 0.0000 0.0000
08:32 16.8 7.5 54 0 0.3 1016.2 0.0000 0.0000
08:42 16.9 7.5 54 90 0.3 0.6 1016.4 0.0000 0.0000
08:52 17 7.4 53 135 0.3 0.6 1016.4 0.0000 0.0000
09:03 17.1 7.5 53 123 0.3 0.6 1016.5 0.0000 0.0000
09:13 17.3 7.6 53 164 0.3 0.6 1016.5 0.0000 0.0000
09:33 18 8 52 191 0.3 0.6 1016.6 0.0000 0.0000
09:43 18.3 8.3 52 185 0.3 0.6 1016.8 0.0000 0.0000
09:53 18.4 8.1 51 215 0.3 1.1 1016.9 0.0000 0.0000
10:03 18.5 8.2 51 146 0.3 0.6 1016.9 0.0000 0.0000
10:13 18.9 8.6 51 168 0.3 0.6 1016.9 0.0000 0.0000
10:24 19.2 8.8 51 146 0.3 0.6 1017 0.0000 0.0000
10:34 19.5 8.8 50 146 0.3 0.8 1017 0.0000 0.0000
10:54 20.4 9 48 201 0.3 0.8 1017 0.0000 0.0000
11:04 20.8 9.1 47 180 0.3 0.6 1017 0.0000 0.0000
11:14 21.1 9.4 47 144 0.3 0.8 1017 0.0000 0.0000
11:24 21.4 9.6 47 135 0.3 0.6 1017 0.0000 0.0000
11:35 21.9 9.8 46 156 0.3 0.6 1016.9 0.0000 0.0000
11:45 22.5 10.3 46 180 0.3 0.8 1016.9 0.0000 0.0000
11:55 23 10.1 44 194 0.3 0.6 1016.9 0.0000 0.0000
12:05 23.4 10.5 44 225 0.3 0.6 1016.8 0.0000 0.0000
12:15 23.9 10.9 44 206 0.3 0.8 1016.6 0.0000 0.0000
12:25 24.4 10.7 42 217 0.3 0.8 1016.5 0.0000 0.0000
12:35 24.8 10.7 41 180 0.3 0.8 1016.4 0.0000 0.0000
12:40 25.1 10.9 41 191 0.3 0.8 1016.4 0.0000 0.0000
12:50 25.5 10.9 40 180 0.3 0.6 1016.4 0.0000 0.0000
13:00 26 11.4 40 206 0.3 0.6 1016.4 0.0000 0.0000
13:10 26.5 11.4 39 225 0.3 0.6 1016.2 0.0000 0.0000
13:21 27 11.9 39 236 0.3 0.6 1016.1 0.0000 0.0000
13:31 27.4 11.8 38 198 0.3 0.6 1016 0.0000 0.0000
13:41 27.8 12.2 38 180 0.3 0.6 1016 0.0000 0.0000
13:50 28.1 12.1 37 225 0.3 0.6 1015.9 0.0000 0.0000
14:01 28.4 12.3 37 135 0.3 0.8 1015.8 0.0000 0.0000
14:11 28.7 12.6 37 135 0.3 0.6 1015.7 0.0000 0.0000
14:21 28.8 12.7 37 0 0.6 1015.6 0.0000 0.0000
14:31 28.8 12.7 37 225 0.3 0.8 1015.5 0.0000 0.0000
14:42 28.9 12.8 37 225 0.3 0.6 1015.4 0.0000 0.0000
14:52 29 12.8 37 225 0.3 0.6 1015.3 0.0000 0.0000
15:01 29.1 12.5 36 270 0.3 0.8 1015.3 0.0000 0.0000
15:12 29.5 12.9 36 0 0.6 1015.2 0.0000 0.0000
15:22 29.5 12.9 36 0 0.6 1015.2 0.0000 0.0000
15:32 29.8 12.7 35 0 0.6 1015.1 0.0000 0.0000
15:42 29.7 12.6 35 0 0.6 1015.1 0.0000 0.0000
15:53 29.5 12.4 35 0 0.6 1015 0.0000 0.0000
16:03 29.2 12.6 36 225 0.3 0.6 1015 0.0000 0.0000
16:12 29 12.4 36 0 0.6 1014.9 0.0000 0.0000
16:23 28.7 12.2 36 0.3 0.6 1014.9 0.0000 0.0000
16:33 28.6 12.5 37 180 0.3 0.6 1014.9 0.0000 0.0000
16:43 28.4 12.3 37 0 0.6 1015 0.0000 0.0000
16:53 28 12 37 225 0.3 0.6 1014.9 0.0000 0.0000
17:04 27.8 12.2 38 180 0.3 0.6 1014.9 0.0000 0.0000
17:14 27.4 11.8 38 0.3 0.6 1014.9 0.0000 0.0000
17:23 27.1 11.6 38 315 0.3 0.8 1014.9 0.0000 0.0000
17:33 26.6 11.5 39 270 0.3 1.1 1014.7 0.0000 0.0000
17:44 26.1 11.5 40 270 0.3 1.1 1014.9 0.0000 0.0000
17:54 25.9 11.7 41 270 0.3 0.8 1014.7 0.0000 0.0000
18:04 25.4 11.2 41 270 0.3 1.1 1014.9 0.0000 0.0000
18:15 24.9 10.8 41 270 0.3 0.8 1014.7 0.0000 0.0000
18:25 25 11.6 43 270 0.3 0.8 1014.7 0.0000 0.0000
18:34 25 11.2 42 315 0.3 0.8 1014.9 0.0000 0.0000
18:44 24.8 11 42 305 0.3 0.8 1015 0.0000 0.0000
18:55 24.7 10.9 42 315 0.3 0.6 1015.1 0.0000 0.0000
19:05 24.7 10.9 42 0 0.3 0.8 1015.1 0.0000 0.0000
19:15 24.6 10.8 42 315 0.3 0.8 1015.1 0.0000 0.0000
19:25 24.5 10.8 42 315 0.3 0.6 1015.2 0.0000 0.0000
19:36 24.4 11 43 315 0.3 0.8 1015.2 0.0000 0.0000
19:45 24.3 10.9 43 315 0.3 0.8 1015.3 0.0000 0.0000
19:55 24.2 10.8 43 315 0.3 0.8 1015.3 0.0000 0.0000
20:06 24.2 10.8 43 341 0.3 0.8 1015.4 0.0000 0.0000
20:16 24.1 11.1 44 270 0.3 0.8 1015.5 0.0000 0.0000
20:26 24 11 44 270 0.3 0.8 1015.6 0.0000 0.0000
20:36 24 11 44 0.3 0.8 1015.7 0.0000 0.0000
20:46 24 11 44 45 0.3 0.6 1015.8 0.0000 0.0000
20:56 23.9 10.9 44 45 0.3 0.8 1015.8 0.0000 0.0000
21:06 23.9 10.6 43 270 0.3 0.8 1015.9 0.0000 0.0000
21:16 23.9 10.6 43 270 0.3 0.6 1016 0.0000 0.0000
21:27 23.8 10.5 43 45 0.3 0.6 1016.1 0.0000 0.0000
21:37 23.8 10.5 43 90 0.3 0.6 1016.1 0.0000 0.0000
21:46 23.8 10.5 43 191 0.3 1.1 1016.2 0.0000 0.0000
21:57 23.7 10.4 43 225 0.3 0.8 1016.2 0.0000 0.0000
22:17 23.5 10.2 43 225 0.3 0.6 1016.3 0.0000 0.0000
22:27 23.5 10.2 43 135 0.3 0.8 1016.3 0.0000 0.0000
22:38 23.5 10.2 43 90 0.3 0.6 1016.3 0.0000 0.0000
22:48 23.5 10.2 43 90 0.3 0.6 1016.3 0.0000 0.0000
22:57 23.5 10.2 43 90 0.3 0.6 1016.3 0.0000 0.0000
23:08 22.8 9.6 43 315 0.3 0.6 1016.3 0.0000 0.0000
23:18 22.3 9.5 44 270 0.3 0.6 1016.3 0.0000 0.0000
23:28 21.9 9.4 45 270 0.3 0.6 1016.4 0.0000 0.0000
23:38 21.5 9.4 46 315 0.3 0.6 1016.3 0.0000 0.0000
23:49 21.3 9.2 46 270 0.3 0.6 1016.3 0.0000 0.0000
23:58 21.1 9.4 47 270 0.3 0.6 1016.2 0.0000 0.0000

DAY STATISTIC

2018-10-17
TEMPERATURE
AVERAGE
22.5
HIGH
29.8
15:32
LOW
16.6
07:52
PRESSURE
AVERAGE
1016.0
HIGH
1017.0
10:24
LOW
1014.7
17:33
DEWPOINT
AVERAGE
10.0
HIGH
12.9
15:12
LOW
7.4
08:22
HUMIDITY
AVERAGE
45
HIGH
55
07:52
LOW
35
15:32
WIND SPEED
AVERAGE
0.3
HIGH
0.6
07:31
WIND GUST
AVERAGE
0.7
HIGH
1.1
05:40
WIND DIRECTION
PREVAILING
SW
22.1%
N
2.1
NE
2.1
E
7.9
SE
12.9
S
13.6
SW
22.1
W
20.0
NW
8.6
PRECIPITATION
RAIN HOUR
0.0
RAIN DAY
0.0
TEMPERATURE (°C)
LOW
16.6
HIGH
29.8
AVERAGE
22.5
PRESSURE (hpa)
LOW
1014.7
HIGH
1017.0
AVERAGE
1016.0
DEVICE